createdAt,value
2024-03-01T05:26:55.674Z,75.71
2024-03-01T05:27:06.096Z,77.40
2024-03-01T05:27:16.233Z,78.78
2024-03-01T05:27:26.358Z,80.07
2024-03-01T05:27:36.447Z,81.21
2024-03-01T05:27:46.558Z,83.01
2024-03-01T05:27:56.712Z,83.95
2024-03-01T05:28:06.762Z,84.37
2024-03-01T05:28:16.914Z,84.82
2024-03-01T05:28:27.053Z,85.13
2024-03-01T05:28:37.149Z,85.69
2024-03-01T05:28:47.238Z,86.21
2024-03-01T05:28:57.349Z,86.83
2024-03-01T05:29:07.495Z,87.25
2024-03-01T05:29:17.592Z,87.56
2024-03-01T05:29:27.697Z,87.92
2024-03-01T05:29:37.779Z,88.33
2024-03-01T05:29:47.890Z,88.75
2024-03-01T05:29:57.995Z,88.85
2024-03-01T05:30:08.090Z,89.06
2024-03-01T05:30:27.384Z,89.37
2024-03-01T05:30:49.621Z,90.00
2024-03-01T05:31:03.671Z,90.00
2024-03-01T05:31:22.372Z,90.10
2024-03-01T05:31:33.361Z,90.10
2024-03-01T05:31:39.672Z,90.10
2024-03-01T05:31:49.770Z,90.20
2024-03-01T05:31:59.881Z,90.20
2024-03-01T05:32:10.041Z,90.20
2024-03-01T05:32:20.145Z,90.10
2024-03-01T05:32:30.265Z,90.10
2024-03-01T05:32:40.365Z,90.10
2024-03-01T05:32:50.500Z,90.10
2024-03-01T05:33:00.655Z,90.20
2024-03-01T05:33:10.730Z,90.35
2024-03-01T05:33:21.078Z,90.56
2024-03-01T05:33:30.986Z,90.77
2024-03-01T05:33:41.079Z,90.93
2024-03-01T05:33:51.400Z,91.46
2024-03-01T05:34:01.329Z,91.46
2024-03-01T05:34:11.458Z,91.04
2024-03-01T05:34:21.557Z,90.72
2024-03-01T05:34:31.695Z,90.72
2024-03-01T05:34:41.804Z,91.04
2024-03-01T05:34:51.920Z,91.25
2024-03-01T05:35:02.016Z,91.25
2024-03-01T05:35:12.135Z,91.14
2024-03-01T05:35:22.215Z,91.04
2024-03-01T05:35:32.333Z,90.93
2024-03-01T05:35:42.478Z,90.93
2024-03-01T05:35:52.563Z,91.14
2024-03-01T05:36:02.667Z,91.25
2024-03-01T05:36:12.770Z,91.35
2024-03-01T05:36:22.882Z,91.25
2024-03-01T05:36:33.022Z,91.46
2024-03-01T05:36:43.091Z,91.46
2024-03-01T05:36:53.196Z,91.25
2024-03-01T05:37:03.308Z,91.46
2024-03-01T05:37:13.460Z,91.46
2024-03-01T05:37:23.631Z,91.35
2024-03-01T05:37:33.680Z,91.25
2024-03-01T05:37:43.754Z,91.14
2024-03-01T05:37:54.065Z,90.93
2024-03-01T05:38:03.989Z,90.83
2024-03-01T05:38:14.089Z,90.72
2024-03-01T05:38:24.193Z,91.04
2024-03-01T05:38:34.335Z,91.04
2024-03-01T05:38:44.431Z,90.83
2024-03-01T05:38:54.547Z,90.83
2024-03-01T05:39:04.663Z,91.14
2024-03-01T05:39:14.832Z,91.35
2024-03-01T05:39:24.959Z,91.35
2024-03-01T05:39:35.059Z,91.25
2024-03-01T05:39:45.165Z,91.04
2024-03-01T05:39:55.307Z,91.04
2024-03-01T05:40:05.453Z,91.35
2024-03-01T05:40:15.567Z,91.35
2024-03-01T05:40:25.712Z,91.35
2024-03-01T05:40:42.402Z,91.14
2024-03-01T05:40:52.920Z,91.14
2024-03-01T05:41:00.643Z,91.04
2024-03-01T05:41:10.745Z,90.93
2024-03-01T05:41:20.863Z,91.04
2024-03-01T05:41:30.957Z,91.56
2024-03-01T05:41:41.161Z,91.46
2024-03-01T05:42:01.423Z,91.41
2024-03-01T05:42:11.531Z,91.20
2024-03-01T05:42:22.554Z,91.00
2024-03-01T05:42:31.745Z,91.31
2024-03-01T05:42:41.886Z,90.89
2024-03-01T05:42:52.017Z,90.89
2024-03-01T05:43:02.140Z,90.47
2024-03-01T05:43:12.301Z,90.26
2024-03-01T05:43:22.719Z,90.20
2024-03-01T05:43:32.598Z,90.41
2024-03-01T05:43:42.717Z,90.52
2024-03-01T05:43:52.813Z,90.72
2024-03-01T20:32:04.660Z,61.94
2024-03-01T21:02:14.242Z,79.80
2024-03-01T21:02:25.225Z,79.91
2024-03-01T21:02:35.362Z,79.91
2024-03-01T21:02:45.443Z,79.91
2024-03-01T21:02:55.546Z,79.91
2024-03-01T21:03:05.656Z,79.91
2024-03-01T21:03:15.760Z,79.91
2024-03-01T21:03:25.871Z,79.91
2024-03-01T21:03:35.960Z,80.01
2024-03-01T21:03:46.062Z,80.11
2024-03-01T21:03:56.162Z,80.21
2024-03-01T21:04:06.322Z,80.25
2024-03-01T21:04:16.423Z,80.11
2024-03-01T21:04:26.542Z,80.11
2024-03-01T21:04:36.719Z,80.01
2024-03-01T21:04:46.801Z,80.01
2024-03-01T21:04:57.100Z,80.15
2024-03-01T21:05:07.045Z,80.21
2024-03-01T21:05:17.131Z,80.32
2024-03-01T21:05:27.233Z,80.32
2024-03-01T21:05:37.340Z,80.32
